Weber Basin Water
2837 E Hwy 193, Layton
Last Weather Update:03/29/2012 1:00:00 PM
Date
ETo
ETc
Rain
Irrigation
Req
Temp
Max
Temp
Min
Temp
Avg
Avg RH
Avg Wind
Avg Solar
inches
inches
incehs
inches
F
F
F
%
%
watts/m2
02/01/2012 0.03" 0.00" 0.00" 0.00" 47.1° 26.6° 34.6° 58.8% 2.1 MPH 60.7w/m2
02/02/2012 0.04" 0.00" 0.05" -0.05" 42.3° 27.8° 33.9° 75.3% 3.6 MPH 109.1w/m2
02/03/2012 0.09" 0.00" 0.00" 0.00" 38.5° 32.3° 35.7° 40.2% 16.2 MPH 141.6w/m2
02/04/2012 0.05" 0.00" 0.00" 0.00" 42.9° 23.1° 31.5° 49.4% 1.8 MPH 147.4w/m2
02/05/2012 0.05" 0.00" 0.00" 0.00" 40.8° 22.1° 30.3° 51.8% 1.3 MPH 144.5w/m2
02/06/2012 0.05" 0.00" 0.00" 0.00" 40.0° 21.0° 29.6° 57.3% 1.5 MPH 145.6w/m2
02/07/2012 0.05" 0.00" 0.00" 0.00" 41.3° 22.2° 30.3° 47.6% 1.9 MPH 146.1w/m2
02/08/2012 0.03" 0.00" 0.00" 0.00" 42.4° 28.9° 33.2° 61.2% 1.7 MPH 71.9w/m2
02/09/2012 0.02" 0.00" 0.00" 0.00" 40.6° 32.9° 35.9° 79.0% 1.3 MPH 48.8w/m2
02/10/2012 0.05" 0.00" 0.00" 0.00" 51.4° 34.8° 40.9° 65.2% 1.4 MPH 95.3w/m2
02/11/2012 0.04" 0.00" 0.00" 0.00" 51.1° 34.1° 41.4° 50.4% 1.6 MPH 73.8w/m2
02/12/2012 0.01" 0.00" 0.04" -0.04" 41.0° 31.9° 35.6° 84.1% 1.7 MPH 19.4w/m2
02/13/2012 0.05" 0.00" 0.15" -0.15" 45.0° 31.9° 36.5° 72.6% 1.8 MPH 113.5w/m2
02/14/2012 0.05" 0.00" 0.00" 0.00" 44.6° 29.1° 36.0° 62.6% 1.8 MPH 127.2w/m2
02/15/2012 0.03" 0.00" 0.06" -0.06" 40.5° 29.6° 33.7° 74.0% 2.3 MPH 63.8w/m2
02/16/2012 0.05" 0.00" 0.07" -0.07" 42.2° 25.4° 31.4° 69.5% 1.4 MPH 130.7w/m2
02/17/2012 0.04" 0.00" 0.00" 0.00" 42.3° 23.7° 31.3° 58.2% 1.8 MPH 109.8w/m2
02/18/2012 0.05" 0.00" 0.00" 0.00" 45.0° 23.4° 33.6° 59.2% 2.4 MPH 130.7w/m2
02/19/2012 0.03" 0.00" 0.16" -0.16" 34.4° 25.2° 28.2° 69.5% 2.9 MPH 71.6w/m2
02/20/2012 0.06" 0.00" 0.04" -0.04" 37.1° 18.2° 28.7° 55.1% 3.2 MPH 146.4w/m2
02/21/2012 0.04" 0.00" 0.07" -0.07" 42.0° 31.3° 36.4° 68.0% 4.9 MPH 60.8w/m2
02/22/2012 0.07" 0.00" 0.01" -0.01" 53.0° 40.1° 46.7° 52.2% 4.6 MPH 87.1w/m2
02/23/2012 0.05" 0.00" 0.00" 0.00" 43.3° 27.2° 32.1° 47.3% 4.2 MPH 101.7w/m2
02/24/2012 0.08" 0.00" 0.00" 0.00" 43.8° 22.9° 33.2° 39.7% 2.7 MPH 185.8w/m2
02/25/2012 0.06" 0.00" 0.00" 0.00" 44.2° 24.6° 32.9° 41.1% 5.1 MPH 110.1w/m2
02/26/2012 0.05" 0.00" 0.00" 0.00" 35.4° 22.0° 27.7° 42.0% 2.7 MPH 148.6w/m2
02/27/2012 0.05" 0.00" 0.00" 0.00" 43.7° 26.7° 35.4° 36.0% 2.3 MPH 79.8w/m2
02/28/2012 0.03" 0.00" 0.06" -0.06" 38.2° 27.3° 31.7° 74.4% 2.1 MPH 68.9w/m2
02/29/2012 0.05" 0.00" 0.02" -0.02" 41.9° 24.4° 33.1° 64.9% 5.7 MPH 54.1w/m2
Totals: 1.36" 0.00" 0.73" -0.73" 53.0° 18.2° 33.9° 58.8% 3.0 MPH 103.3w/m2